Time;durP1;ratioP1;P1;durP2;ratioP2;P2;SDS_P1;SDS_P2;PMS_P1;PMS_P2;Temp;Humidity;BMP_temperature;BMP_pressure;BME280_temperature;BME280_humidity;BME280_pressure;Samples;Min_cycle;Max_cycle;Signal;HPM_P1;HPM_P2
2021/12/11 00:04:34;;;;;;;10.25;8.45;;;;;;;;;;10236972;28;20088;-59
2021/12/11 00:09:35;;;;;;;9.60;7.55;;;;;;;;;;10243856;28;20080;-58
2021/12/11 00:14:37;;;;;;;11.63;10.32;;;;;;;;;;10244593;28;20073;-59
2021/12/11 00:19:37;;;;;;;11.63;9.50;;;;;;;;;;10244423;28;20469;-58
2021/12/11 00:24:36;;;;;;;9.43;8.07;;;;;;;;;;10243137;28;20057;-58
2021/12/11 00:29:36;;;;;;;23.10;19.45;;;;;;;;;;10245859;28;20061;-58
2021/12/11 00:34:37;;;;;;;530.03;62.97;;;;;;;;;;10239469;28;20413;-57
2021/12/11 00:39:43;;;;;;;277.85;43.10;;;;;;;;;;10240510;28;20087;-58
2021/12/11 00:44:44;;;;;;;299.40;39.30;;;;;;;;;;10239300;28;20075;-57
2021/12/11 00:49:47;;;;;;;282.52;37.20;;;;;;;;;;10243712;28;20072;-58
2021/12/11 00:54:46;;;;;;;181.07;25.02;;;;;;;;;;10242172;28;20087;-58
2021/12/11 00:59:46;;;;;;;186.68;26.42;;;;;;;;;;10241343;28;20077;-59
2021/12/11 01:04:44;;;;;;;110.72;23.95;;;;;;;;;;10244970;28;20073;-58
2021/12/11 01:09:46;;;;;;;137.60;21.02;;;;;;;;;;10250893;28;20163;-58
2021/12/11 01:14:52;;;;;;;54.92;24.30;;;;;;;;;;10247301;28;20423;-57
2021/12/11 01:19:54;;;;;;;40.42;18.20;;;;;;;;;;10244077;28;20147;-56
2021/12/11 01:24:53;;;;;;;103.85;22.95;;;;;;;;;;10237982;28;20068;-58
2021/12/11 01:29:56;;;;;;;67.13;29.55;;;;;;;;;;10238451;28;20097;-57
2021/12/11 01:34:54;;;;;;;100.88;20.95;;;;;;;;;;10247119;28;20175;-58
2021/12/11 01:39:53;;;;;;;101.07;21.05;;;;;;;;;;10246190;28;20084;-58
2021/12/11 01:44:55;;;;;;;233.43;25.48;;;;;;;;;;10241180;28;20079;-57
2021/12/11 01:49:54;;;;;;;65.65;16.98;;;;;;;;;;10236849;28;20068;-56
2021/12/11 01:54:53;;;;;;;67.78;25.23;;;;;;;;;;10237000;28;20061;-58
2021/12/11 02:00:00;;;;;;;40.80;17.20;;;;;;;;;;10244821;28;20076;-58
2021/12/11 02:05:08;;;;;;;67.13;21.25;;;;;;;;;;10248533;28;20085;-58
2021/12/11 02:10:14;;;;;;;64.55;19.92;;;;;;;;;;10236979;28;20129;-57
2021/12/11 02:15:15;;;;;;;82.65;17.15;;;;;;;;;;10238232;28;20064;-57
2021/12/11 02:20:14;;;;;;;53.42;19.00;;;;;;;;;;10244534;28;20084;-58
2021/12/11 02:25:16;;;;;;;73.63;16.20;;;;;;;;;;10245296;28;20224;-58
2021/12/11 02:30:20;;;;;;;34.72;15.05;;;;;;;;;;10244106;28;20421;-58
2021/12/11 02:35:21;;;;;;;61.83;17.43;;;;;;;;;;10243066;28;20069;-59
2021/12/11 02:40:22;;;;;;;48.30;13.88;;;;;;;;;;10243923;28;20439;-58
2021/12/11 02:45:23;;;;;;;43.53;17.67;;;;;;;;;;10240876;28;20060;-58
2021/12/11 02:50:24;;;;;;;54.20;28.95;;;;;;;;;;10242000;28;20077;-58
2021/12/11 02:55:25;;;;;;;48.70;13.07;;;;;;;;;;10238232;28;20109;-58
2021/12/11 03:00:25;;;;;;;59.80;15.48;;;;;;;;;;10239857;28;20091;-57
2021/12/11 03:05:34;;;;;;;48.58;13.15;;;;;;;;;;10245102;28;20076;-58
2021/12/11 03:10:34;;;;;;;67.15;13.25;;;;;;;;;;10245413;28;20298;-59
2021/12/11 03:15:33;;;;;;;42.83;16.00;;;;;;;;;;10240063;28;20483;-59
2021/12/11 03:20:32;;;;;;;84.55;17.85;;;;;;;;;;10239196;28;20084;-59
2021/12/11 03:25:31;;;;;;;70.20;18.10;;;;;;;;;;10240986;28;20081;-57
2021/12/11 03:30:33;;;;;;;94.47;14.73;;;;;;;;;;10241467;28;20522;-58
2021/12/11 03:35:31;;;;;;;39.75;13.43;;;;;;;;;;10240495;28;20088;-58
2021/12/11 03:40:30;;;;;;;117.97;15.07;;;;;;;;;;10239640;28;20088;-58
2021/12/11 03:45:30;;;;;;;62.58;13.90;;;;;;;;;;10244675;28;20069;-58
2021/12/11 03:50:30;;;;;;;30.13;11.65;;;;;;;;;;10249222;28;20507;-58
2021/12/11 03:55:30;;;;;;;80.03;13.80;;;;;;;;;;10240775;28;20065;-58
2021/12/11 04:00:31;;;;;;;96.63;11.82;;;;;;;;;;10242039;28;20095;-58
2021/12/11 04:05:31;;;;;;;108.45;13.07;;;;;;;;;;10245832;28;20073;-57
2021/12/11 04:10:29;;;;;;;100.05;11.15;;;;;;;;;;10243843;28;20427;-57
2021/12/11 04:15:28;;;;;;;35.20;9.90;;;;;;;;;;10239550;28;20064;-57
2021/12/11 04:20:28;;;;;;;28.55;9.88;;;;;;;;;;10241427;28;20088;-57
2021/12/11 04:25:29;;;;;;;29.88;11.30;;;;;;;;;;10239140;28;20075;-57
2021/12/11 04:30:28;;;;;;;36.90;11.73;;;;;;;;;;10241552;28;20061;-57
2021/12/11 04:35:29;;;;;;;23.35;12.45;;;;;;;;;;10241127;28;20440;-58
2021/12/11 04:40:31;;;;;;;25.67;17.08;;;;;;;;;;10240176;28;20415;-57
2021/12/11 04:45:33;;;;;;;22.63;14.43;;;;;;;;;;10241697;28;20061;-58
2021/12/11 04:50:40;;;;;;;17.98;15.98;;;;;;;;;;10241826;28;20435;-57
2021/12/11 04:55:55;;;;;;;30.30;19.65;;;;;;;;;;10241306;28;20069;-58
2021/12/11 05:01:04;;;;;;;25.30;17.15;;;;;;;;;;10245332;28;20083;-57
2021/12/11 05:06:23;;;;;;;15.50;12.27;;;;;;;;;;10244310;28;20079;-57
2021/12/11 05:11:33;;;;;;;32.60;22.10;;;;;;;;;;10239501;28;20073;-58
2021/12/11 05:16:31;;;;;;;48.40;35.97;;;;;;;;;;10240018;28;20069;-57
2021/12/11 05:21:30;;;;;;;36.97;28.55;;;;;;;;;;10243559;28;20183;-58
2021/12/11 05:26:29;;;;;;;48.80;38.05;;;;;;;;;;10246705;28;20109;-57
2021/12/11 05:31:28;;;;;;;32.53;28.90;;;;;;;;;;10245512;28;20129;-58
2021/12/11 05:36:29;;;;;;;56.03;46.67;;;;;;;;;;10243405;28;20117;-57
2021/12/11 05:41:27;;;;;;;39.08;32.33;;;;;;;;;;10239082;28;20077;-57
2021/12/11 05:46:27;;;;;;;35.38;29.63;;;;;;;;;;10239664;28;20064;-54
2021/12/11 05:51:26;;;;;;;26.25;20.02;;;;;;;;;;10244325;28;20073;-57
2021/12/11 05:56:25;;;;;;;115.88;77.38;;;;;;;;;;10246044;28;20084;-58
2021/12/11 06:01:26;;;;;;;97.72;58.50;;;;;;;;;;10244749;28;20081;-57
2021/12/11 06:06:29;;;;;;;48.55;32.58;;;;;;;;;;10241264;28;20076;-54
2021/12/11 06:11:27;;;;;;;36.10;26.95;;;;;;;;;;10247091;28;20127;-57
2021/12/11 06:16:26;;;;;;;26.20;19.45;;;;;;;;;;10251063;28;20114;-58
2021/12/11 06:21:25;;;;;;;28.25;20.50;;;;;;;;;;10249310;28;20119;-59
2021/12/11 06:26:25;;;;;;;19.73;12.95;;;;;;;;;;10248372;28;20128;-58
2021/12/11 06:31:23;;;;;;;32.63;21.17;;;;;;;;;;10250015;28;20623;-58
2021/12/11 06:36:22;;;;;;;52.42;30.67;;;;;;;;;;10248885;28;20092;-58
2021/12/11 06:41:22;;;;;;;64.35;16.00;;;;;;;;;;10248215;28;20077;-59
2021/12/11 06:46:21;;;;;;;63.70;45.28;;;;;;;;;;10255686;28;20450;-58
2021/12/11 06:51:20;;;;;;;71.75;49.03;;;;;;;;;;10244996;28;20087;-59
2021/12/11 06:56:19;;;;;;;12.75;9.60;;;;;;;;;;10245515;28;20085;-58
2021/12/11 07:01:18;;;;;;;19.20;12.93;;;;;;;;;;10247152;28;20076;-57
2021/12/11 07:06:19;;;;;;;22.67;14.52;;;;;;;;;;10240024;28;20103;-58
2021/12/11 07:11:18;;;;;;;18.02;10.32;;;;;;;;;;10243081;28;20084;-58
2021/12/11 07:16:17;;;;;;;14.85;10.45;;;;;;;;;;10240078;28;20145;-58
2021/12/11 07:21:18;;;;;;;15.10;7.93;;;;;;;;;;10242781;28;20115;-58
2021/12/11 07:26:19;;;;;;;12.07;8.95;;;;;;;;;;10234472;28;20076;-58
2021/12/11 07:31:18;;;;;;;11.52;8.15;;;;;;;;;;10236383;28;20065;-59
2021/12/11 07:36:16;;;;;;;11.05;8.68;;;;;;;;;;10236799;28;20131;-59
2021/12/11 07:41:17;;;;;;;12.93;8.35;;;;;;;;;;10235975;28;20562;-59
2021/12/11 07:46:17;;;;;;;10.90;8.35;;;;;;;;;;10238333;28;20075;-58
2021/12/11 07:51:16;;;;;;;10.95;8.05;;;;;;;;;;10240112;28;20080;-59
2021/12/11 07:56:17;;;;;;;10.00;7.13;;;;;;;;;;10243247;28;20083;-59
2021/12/11 08:01:16;;;;;;;28.38;21.02;;;;;;;;;;10243702;28;20076;-58
2021/12/11 08:06:15;;;;;;;38.35;26.83;;;;;;;;;;10238013;28;20069;-57
2021/12/11 08:11:17;;;;;;;30.30;20.88;;;;;;;;;;10240410;28;20069;-58
2021/12/11 08:16:20;;;;;;;20.15;16.08;;;;;;;;;;10241811;28;20084;-60
2021/12/11 08:21:19;;;;;;;19.60;13.13;;;;;;;;;;10241845;28;20456;-59
2021/12/11 08:26:20;;;;;;;22.92;15.27;;;;;;;;;;10241700;28;20076;-59
2021/12/11 08:31:21;;;;;;;21.40;14.25;;;;;;;;;;10247738;28;20060;-60
2021/12/11 08:36:20;;;;;;;16.98;12.77;;;;;;;;;;10245297;28;20166;-58
2021/12/11 08:41:22;;;;;;;25.20;17.30;;;;;;;;;;10247673;28;20076;-59
2021/12/11 08:46:27;;;;;;;22.80;18.55;;;;;;;;;;10244395;28;20083;-58
2021/12/11 08:51:28;;;;;;;30.92;23.83;;;;;;;;;;10248713;28;20069;-60
2021/12/11 08:56:28;;;;;;;30.13;20.95;;;;;;;;;;10244577;28;20093;-60
2021/12/11 09:01:30;;;;;;;19.13;16.38;;;;;;;;;;10246000;28;20064;-59
2021/12/11 09:06:32;;;;;;;20.90;17.88;;;;;;;;;;10243254;28;20065;-59
2021/12/11 09:11:31;;;;;;;35.85;25.92;;;;;;;;;;10243009;28;20454;-59
2021/12/11 09:16:32;;;;;;;19.13;15.55;;;;;;;;;;10247632;28;20069;-59
2021/12/11 09:21:32;;;;;;;23.38;18.27;;;;;;;;;;10246935;28;20060;-59
2021/12/11 09:26:33;;;;;;;14.60;12.55;;;;;;;;;;10245712;28;20084;-60
2021/12/11 09:31:35;;;;;;;17.73;14.52;;;;;;;;;;10247588;28;20056;-59
2021/12/11 09:36:35;;;;;;;30.05;23.50;;;;;;;;;;10245194;28;20072;-58
2021/12/11 09:41:33;;;;;;;19.05;13.80;;;;;;;;;;10246463;28;20081;-58
2021/12/11 09:46:35;;;;;;;23.30;15.48;;;;;;;;;;10246682;28;20183;-59
2021/12/11 09:51:38;;;;;;;24.73;17.45;;;;;;;;;;10243402;28;20057;-58
2021/12/11 09:56:38;;;;;;;27.40;19.02;;;;;;;;;;10242693;28;20077;-58
2021/12/11 10:01:39;;;;;;;19.83;11.95;;;;;;;;;;10248553;28;20073;-59
2021/12/11 10:06:43;;;;;;;12.60;8.25;;;;;;;;;;10249085;28;20637;-59
2021/12/11 10:11:42;;;;;;;16.58;9.93;;;;;;;;;;10244261;28;20060;-59
2021/12/11 10:16:44;;;;;;;12.52;7.85;;;;;;;;;;10258372;28;20077;-56
2021/12/11 10:21:44;;;;;;;16.08;10.13;;;;;;;;;;10249707;28;20077;-55
2021/12/11 10:26:44;;;;;;;13.20;8.98;;;;;;;;;;10248744;28;20081;-56
2021/12/11 10:31:46;;;;;;;13.70;8.98;;;;;;;;;;10245986;28;20148;-55
2021/12/11 10:36:47;;;;;;;16.10;9.20;;;;;;;;;;10249798;28;20885;-55
2021/12/11 10:41:46;;;;;;;12.30;9.02;;;;;;;;;;10248244;28;20069;-56
2021/12/11 10:46:47;;;;;;;12.80;7.97;;;;;;;;;;10247102;28;20080;-56
2021/12/11 10:51:46;;;;;;;18.48;9.77;;;;;;;;;;10244401;28;20076;-55
2021/12/11 10:56:45;;;;;;;22.48;15.15;;;;;;;;;;10248142;28;20465;-55
2021/12/11 11:01:45;;;;;;;17.48;12.77;;;;;;;;;;10244847;28;20060;-57
2021/12/11 11:06:46;;;;;;;16.20;10.90;;;;;;;;;;10244244;28;20445;-57
2021/12/11 11:11:46;;;;;;;20.77;11.88;;;;;;;;;;10244438;28;20073;-57
2021/12/11 11:16:46;;;;;;;17.08;10.80;;;;;;;;;;10245143;28;20073;-59
2021/12/11 11:21:47;;;;;;;12.63;8.13;;;;;;;;;;10247675;28;20072;-59
2021/12/11 11:26:48;;;;;;;10.20;7.85;;;;;;;;;;10243147;28;20315;-56
2021/12/11 11:31:48;;;;;;;13.20;9.27;;;;;;;;;;10240653;28;20096;-55
2021/12/11 11:36:48;;;;;;;18.40;9.90;;;;;;;;;;10242229;28;20069;-55
2021/12/11 11:41:49;;;;;;;23.80;15.00;;;;;;;;;;10246760;28;20074;-55
2021/12/11 11:46:48;;;;;;;15.00;11.10;;;;;;;;;;10243204;28;20069;-57
2021/12/11 11:51:50;;;;;;;17.73;11.73;;;;;;;;;;10251030;28;20077;-54
2021/12/11 11:56:49;;;;;;;18.60;13.75;;;;;;;;;;10255214;28;20089;-58
2021/12/11 12:01:50;;;;;;;15.38;11.02;;;;;;;;;;10256675;28;20481;-56
2021/12/11 12:06:54;;;;;;;21.00;12.88;;;;;;;;;;10255675;28;20114;-58
2021/12/11 12:11:57;;;;;;;19.27;10.20;;;;;;;;;;10259119;28;20076;-54
2021/12/11 12:16:56;;;;;;;30.35;21.98;;;;;;;;;;10265884;28;20072;-57
2021/12/11 12:21:57;;;;;;;26.20;14.15;;;;;;;;;;10256898;28;20064;-53
2021/12/11 12:26:56;;;;;;;36.10;24.92;;;;;;;;;;10253638;28;20084;-56
2021/12/11 12:31:57;;;;;;;23.33;17.50;;;;;;;;;;10254140;28;20068;-54
2021/12/11 12:36:58;;;;;;;31.02;19.30;;;;;;;;;;10249235;28;20275;-57
2021/12/11 12:42:04;;;;;;;26.73;19.42;;;;;;;;;;10258506;28;20084;-57
2021/12/11 12:47:05;;;;;;;21.33;15.43;;;;;;;;;;10258168;28;20533;-52
2021/12/11 12:52:08;;;;;;;29.00;21.60;;;;;;;;;;10259365;28;20042;-56
2021/12/11 12:57:13;;;;;;;18.95;11.90;;;;;;;;;;10252876;28;20092;-56
2021/12/11 13:02:11;;;;;;;;;;;;;;;;;;10258462;28;20140;-55
2021/12/11 13:07:13;;;;;;;17.15;12.98;;;;;;;;;;10251091;28;19967;-55
2021/12/11 13:12:13;;;;;;;41.38;27.83;;;;;;;;;;10252286;28;20073;-57
2021/12/11 13:17:13;;;;;;;31.30;25.55;;;;;;;;;;10252850;28;20479;-54
2021/12/11 13:22:16;;;;;;;23.88;15.32;;;;;;;;;;10245928;28;20069;-52
2021/12/11 13:27:16;;;;;;;24.98;17.95;;;;;;;;;;10253766;28;20068;-57
2021/12/11 13:32:17;;;;;;;27.95;18.35;;;;;;;;;;10255788;28;20109;-55
2021/12/11 13:37:18;;;;;;;30.00;22.08;;;;;;;;;;10249921;28;20083;-58
2021/12/11 13:42:19;;;;;;;23.80;14.88;;;;;;;;;;10246060;28;20537;-58
2021/12/11 13:47:21;;;;;;;18.35;11.32;;;;;;;;;;10250767;28;20083;-58
2021/12/11 13:52:21;;;;;;;21.17;11.90;;;;;;;;;;10246420;28;20072;-56
2021/12/11 13:57:24;;;;;;;31.35;18.30;;;;;;;;;;10245639;28;20080;-52
2021/12/11 14:02:24;;;;;;;24.05;14.73;;;;;;;;;;10250378;28;20076;-57
2021/12/11 14:07:26;;;;;;;20.55;14.50;;;;;;;;;;10246992;28;20167;-57
2021/12/11 14:12:28;;;;;;;23.45;13.90;;;;;;;;;;10244716;28;20466;-58
2021/12/11 14:17:27;;;;;;;23.42;13.35;;;;;;;;;;10241606;28;20310;-58
2021/12/11 14:22:27;;;;;;;35.00;24.30;;;;;;;;;;10249843;28;20076;-57
2021/12/11 14:27:30;;;;;;;44.70;29.00;;;;;;;;;;10247933;28;20068;-57
2021/12/11 14:32:30;;;;;;;51.53;43.50;;;;;;;;;;10247067;28;20414;-57
2021/12/11 14:37:30;;;;;;;39.30;30.00;;;;;;;;;;10248565;28;20481;-59
2021/12/11 14:42:28;;;;;;;27.60;19.08;;;;;;;;;;10243643;28;20069;-57
2021/12/11 14:47:27;;;;;;;33.83;25.67;;;;;;;;;;10246116;28;20064;-57
2021/12/11 14:52:26;;;;;;;35.15;23.67;;;;;;;;;;10243558;28;20057;-56
2021/12/11 14:57:26;;;;;;;38.70;26.30;;;;;;;;;;10242079;28;20477;-56
2021/12/11 15:02:26;;;;;;;45.88;29.33;;;;;;;;;;10247038;28;20073;-58
2021/12/11 15:07:28;;;;;;;110.45;64.75;;;;;;;;;;10241266;28;20067;-56
2021/12/11 15:12:29;;;;;;;37.95;24.33;;;;;;;;;;10244004;28;20065;-55
2021/12/11 15:17:29;;;;;;;46.95;24.13;;;;;;;;;;10248998;28;20509;-52
2021/12/11 15:22:29;;;;;;;46.58;38.47;;;;;;;;;;10251711;28;20065;-57
2021/12/11 15:27:29;;;;;;;41.17;28.30;;;;;;;;;;10242602;28;20068;-57
2021/12/11 15:32:28;;;;;;;28.27;19.45;;;;;;;;;;10250171;28;20064;-53
2021/12/11 15:37:26;;;;;;;35.78;22.42;;;;;;;;;;10256806;28;20079;-59
2021/12/11 15:42:25;;;;;;;32.03;24.52;;;;;;;;;;10264304;28;20068;-56
2021/12/11 15:47:26;;;;;;;30.35;22.23;;;;;;;;;;10255949;28;20458;-55
2021/12/11 15:52:24;;;;;;;32.75;23.02;;;;;;;;;;10255242;28;20100;-57
2021/12/11 15:57:23;;;;;;;40.60;25.42;;;;;;;;;;10237159;28;20488;-56
2021/12/11 16:02:23;;;;;;;46.67;33.72;;;;;;;;;;10248211;28;20481;-56
2021/12/11 16:07:23;;;;;;;44.50;30.33;;;;;;;;;;10247156;28;20516;-52
2021/12/11 16:12:23;;;;;;;51.75;37.47;;;;;;;;;;10250237;28;20065;-57
2021/12/11 16:17:30;;;;;;;36.20;23.50;;;;;;;;;;10248455;28;20085;-55
2021/12/11 16:22:33;;;;;;;32.45;18.58;;;;;;;;;;10252910;28;20088;-55
2021/12/11 16:27:31;;;;;;;33.15;23.70;;;;;;;;;;10249614;28;20117;-55
2021/12/11 16:32:30;;;;;;;37.05;21.17;;;;;;;;;;10251078;28;20079;-53
2021/12/11 16:37:35;;;;;;;44.78;25.33;;;;;;;;;;10249702;28;20076;-54
2021/12/11 16:42:33;;;;;;;;;;;;;;;;;;10249143;28;20076;-55
2021/12/11 16:47:31;;;;;;;29.63;22.17;;;;;;;;;;10248602;28;19967;-55
2021/12/11 16:52:30;;;;;;;26.95;16.92;;;;;;;;;;10247014;28;20080;-51
2021/12/11 16:57:29;;;;;;;33.67;19.50;;;;;;;;;;10250262;28;20065;-56
2021/12/11 17:02:28;;;;;;;26.75;13.73;;;;;;;;;;10249860;28;20489;-53
2021/12/11 17:07:27;;;;;;;24.15;15.68;;;;;;;;;;10248353;28;20072;-52
2021/12/11 17:12:26;;;;;;;17.23;11.65;;;;;;;;;;10248801;28;20069;-52
2021/12/11 17:17:26;;;;;;;19.27;12.45;;;;;;;;;;10244349;28;21015;-51
2021/12/11 17:22:25;;;;;;;23.77;15.73;;;;;;;;;;10247946;28;20732;-53
2021/12/11 17:27:24;;;;;;;29.80;19.17;;;;;;;;;;10249312;28;20069;-56
2021/12/11 17:32:22;;;;;;;39.97;27.58;;;;;;;;;;10247056;28;20061;-54
2021/12/11 17:37:22;;;;;;;23.77;13.48;;;;;;;;;;10251299;28;20179;-52
2021/12/11 17:42:20;;;;;;;33.00;21.20;;;;;;;;;;10245227;28;21094;-53
2021/12/11 17:47:19;;;;;;;50.38;33.60;;;;;;;;;;10249214;28;20077;-55
2021/12/11 17:52:18;;;;;;;77.25;51.58;;;;;;;;;;10254296;28;20083;-56
2021/12/11 17:57:18;;;;;;;22.27;14.68;;;;;;;;;;10256018;28;20076;-54
2021/12/11 18:02:18;;;;;;;23.83;10.55;;;;;;;;;;10249130;28;20069;-51
2021/12/11 18:07:18;;;;;;;12.75;7.78;;;;;;;;;;10248490;28;20099;-55
2021/12/11 18:12:21;;;;;;;24.13;15.15;;;;;;;;;;10244392;28;20069;-55
2021/12/11 18:17:22;;;;;;;23.13;12.00;;;;;;;;;;10248142;28;20453;-51
2021/12/11 18:22:23;;;;;;;24.35;14.77;;;;;;;;;;10244206;28;20048;-55
2021/12/11 18:27:25;;;;;;;20.50;9.27;;;;;;;;;;10242944;28;20130;-54
2021/12/11 18:32:25;;;;;;;16.00;5.72;;;;;;;;;;10238951;28;20081;-55
2021/12/11 18:37:26;;;;;;;12.60;5.50;;;;;;;;;;10244657;28;20080;-57
2021/12/11 18:42:27;;;;;;;11.52;7.20;;;;;;;;;;10244770;28;20068;-54
2021/12/11 18:47:26;;;;;;;14.30;8.07;;;;;;;;;;10245616;28;20072;-55
2021/12/11 18:52:29;;;;;;;13.35;9.23;;;;;;;;;;10242474;28;20108;-53
2021/12/11 18:57:29;;;;;;;20.55;11.25;;;;;;;;;;10246098;28;20084;-52
2021/12/11 19:02:30;;;;;;;12.32;7.55;;;;;;;;;;10245151;28;20489;-54
2021/12/11 19:07:29;;;;;;;14.45;8.10;;;;;;;;;;10248098;28;20484;-54
2021/12/11 19:12:30;;;;;;;14.77;6.20;;;;;;;;;;10256109;28;20103;-49
2021/12/11 19:17:28;;;;;;;9.88;3.83;;;;;;;;;;10243733;28;20061;-57
2021/12/11 19:22:27;;;;;;;14.63;7.20;;;;;;;;;;10240224;28;20080;-53
2021/12/11 19:27:29;;;;;;;8.80;5.35;;;;;;;;;;10248079;28;20079;-54
2021/12/11 19:32:28;;;;;;;13.30;4.05;;;;;;;;;;10238004;28;20069;-51
2021/12/11 19:37:27;;;;;;;9.38;4.35;;;;;;;;;;10245945;28;20076;-55
2021/12/11 19:42:26;;;;;;;21.20;10.13;;;;;;;;;;10246704;28;20108;-54
2021/12/11 19:47:25;;;;;;;16.23;6.80;;;;;;;;;;10243214;28;20184;-53
2021/12/11 19:52:27;;;;;;;9.18;4.15;;;;;;;;;;10245014;28;20064;-54
2021/12/11 19:57:27;;;;;;;17.58;5.80;;;;;;;;;;10242270;28;20088;-51
2021/12/11 20:02:27;;;;;;;16.38;4.30;;;;;;;;;;10238217;28;20490;-53
2021/12/11 20:07:28;;;;;;;12.05;6.25;;;;;;;;;;10240528;28;20065;-52
2021/12/11 20:12:28;;;;;;;21.23;7.15;;;;;;;;;;10241354;28;20073;-49
2021/12/11 20:17:28;;;;;;;18.48;12.93;;;;;;;;;;10245380;28;20077;-54
2021/12/11 20:22:28;;;;;;;12.57;8.73;;;;;;;;;;10244930;28;20448;-53
2021/12/11 20:27:28;;;;;;;15.55;7.32;;;;;;;;;;10255603;28;20076;-57
2021/12/11 20:32:27;;;;;;;19.40;6.68;;;;;;;;;;10263900;28;20096;-53
2021/12/11 20:37:27;;;;;;;24.30;8.75;;;;;;;;;;10249933;28;20533;-52
2021/12/11 20:42:28;;;;;;;21.58;9.82;;;;;;;;;;10253485;28;20072;-49
2021/12/11 20:47:27;;;;;;;14.77;6.95;;;;;;;;;;10251661;28;20076;-56
2021/12/11 20:52:26;;;;;;;14.13;6.72;;;;;;;;;;10246272;28;20080;-55
2021/12/11 20:57:25;;;;;;;13.68;6.47;;;;;;;;;;10246145;28;20571;-54
2021/12/11 21:02:27;;;;;;;10.05;4.75;;;;;;;;;;10247273;28;20508;-55
2021/12/11 21:07:27;;;;;;;20.73;8.02;;;;;;;;;;10245704;28;20081;-55
2021/12/11 21:12:27;;;;;;;19.40;7.18;;;;;;;;;;10252889;28;20073;-55
2021/12/11 21:17:31;;;;;;;18.58;7.78;;;;;;;;;;10247101;28;20528;-54
2021/12/11 21:22:31;;;;;;;25.35;12.00;;;;;;;;;;10245592;28;20068;-56
2021/12/11 21:27:30;;;;;;;17.33;10.07;;;;;;;;;;10246206;28;20163;-57
2021/12/11 21:32:31;;;;;;;24.25;11.93;;;;;;;;;;10241839;28;20091;-54
2021/12/11 21:37:30;;;;;;;33.80;12.82;;;;;;;;;;10247925;28;20486;-52
2021/12/11 21:42:30;;;;;;;24.20;13.63;;;;;;;;;;10246204;28;20203;-56
2021/12/11 21:47:31;;;;;;;20.70;10.40;;;;;;;;;;10249207;28;20076;-54
2021/12/11 21:52:31;;;;;;;24.05;10.48;;;;;;;;;;10245850;28;20061;-57
2021/12/11 21:57:30;;;;;;;27.65;10.73;;;;;;;;;;10241021;28;20077;-54
2021/12/11 22:02:31;;;;;;;25.90;12.85;;;;;;;;;;10238878;28;20746;-54
2021/12/11 22:07:31;;;;;;;16.15;8.50;;;;;;;;;;10243524;28;20077;-54
2021/12/11 22:12:32;;;;;;;18.73;7.00;;;;;;;;;;10239651;28;20072;-53
2021/12/11 22:17:32;;;;;;;19.20;9.95;;;;;;;;;;10240577;28;21227;-57
2021/12/11 22:22:33;;;;;;;21.15;9.07;;;;;;;;;;10243001;28;20052;-57
2021/12/11 22:27:33;;;;;;;20.05;9.68;;;;;;;;;;10245033;28;20083;-53
2021/12/11 22:32:33;;;;;;;23.00;7.22;;;;;;;;;;10246382;28;20068;-53
2021/12/11 22:37:33;;;;;;;22.58;7.78;;;;;;;;;;10247710;28;20068;-53
2021/12/11 22:42:34;;;;;;;19.20;6.47;;;;;;;;;;10246960;28;20521;-55
2021/12/11 22:47:35;;;;;;;16.20;7.60;;;;;;;;;;10243800;28;20079;-52
2021/12/11 22:52:33;;;;;;;22.85;7.88;;;;;;;;;;10243187;28;20446;-53
2021/12/11 22:57:33;;;;;;;24.00;9.25;;;;;;;;;;10253866;28;20072;-52
2021/12/11 23:02:33;;;;;;;20.25;6.97;;;;;;;;;;10238922;28;20079;-52
2021/12/11 23:07:34;;;;;;;14.13;5.78;;;;;;;;;;10239751;28;20085;-56
2021/12/11 23:12:37;;;;;;;21.90;6.35;;;;;;;;;;10238336;28;20527;-53
2021/12/11 23:17:38;;;;;;;34.13;12.07;;;;;;;;;;10242706;28;20064;-51
2021/12/11 23:22:39;;;;;;;36.80;13.88;;;;;;;;;;10241099;28;20091;-55
2021/12/11 23:27:39;;;;;;;13.27;6.55;;;;;;;;;;10238957;28;20073;-55
2021/12/11 23:32:39;;;;;;;20.80;7.00;;;;;;;;;;10243310;28;20068;-55
2021/12/11 23:37:41;;;;;;;10.60;5.93;;;;;;;;;;10244279;28;20064;-55
2021/12/11 23:42:41;;;;;;;15.07;7.55;;;;;;;;;;10240774;28;20068;-56
2021/12/11 23:47:40;;;;;;;13.57;6.63;;;;;;;;;;10240537;28;20083;-54
2021/12/11 23:52:41;;;;;;;15.70;6.75;;;;;;;;;;10241523;28;20510;-57
2021/12/11 23:57:39;;;;;;;18.05;5.97;;;;;;;;;;10241511;28;20086;-56
